Time;durP1;ratioP1;P1;durP2;ratioP2;P2;SDS_P1;SDS_P2;PMS_P1;PMS_P2;Temp;Humidity;BMP_temperature;BMP_pressure;BME280_temperature;BME280_humidity;BME280_pressure;Samples;Min_cycle;Max_cycle;Signal;HPM_P1;HPM_P2
2023/05/20 00:00:32;;;;;;;32.75;12.82;;;;;;;26.41;54.20;97955.44;4970055;28;20054;-61
2023/05/20 00:03:02;;;;;;;38.20;13.98;;;;;;;26.40;54.63;97964.69;4986090;28;20038;-61
2023/05/20 00:05:32;;;;;;;30.38;13.30;;;;;;;26.38;54.03;97962.28;4978977;28;20105;-61
2023/05/20 00:08:03;;;;;;;28.67;13.10;;;;;;;26.35;54.13;97969.16;4986347;28;20058;-62
2023/05/20 00:10:34;;;;;;;29.23;12.98;;;;;;;26.38;54.60;97977.81;4984725;28;20560;-61
2023/05/20 00:13:03;;;;;;;36.08;14.75;;;;;;;26.35;54.01;97968.34;4969026;28;20130;-63
2023/05/20 00:15:34;;;;;;;48.72;18.10;;;;;;;26.33;53.05;97960.50;4978959;28;20497;-63
2023/05/20 00:18:05;;;;;;;52.58;23.80;;;;;;;26.35;52.28;97965.63;4984824;28;20049;-60
2023/05/20 00:20:34;;;;;;;46.60;21.77;;;;;;;26.42;53.38;97965.19;4985532;28;20092;-61
2023/05/20 00:23:03;;;;;;;39.80;20.38;;;;;;;26.42;54.12;97966.00;4984388;28;20046;-63
2023/05/20 00:25:32;;;;;;;35.75;18.80;;;;;;;26.38;54.73;97965.81;4977778;28;20070;-63
2023/05/20 00:28:02;;;;;;;39.50;19.23;;;;;;;26.41;54.95;97967.09;4991914;28;20053;-63
2023/05/20 00:30:31;;;;;;;39.83;19.85;;;;;;;26.42;54.78;97976.88;4984351;28;20048;-60
2023/05/20 00:33:01;;;;;;;52.97;21.38;;;;;;;26.45;55.87;97978.94;4974730;28;20560;-60
2023/05/20 00:35:30;;;;;;;40.08;18.38;;;;;;;26.51;56.14;97977.66;4985106;28;20651;-60
2023/05/20 00:38:00;;;;;;;38.30;19.45;;;;;;;26.50;56.99;97978.81;4983735;28;20135;-60
2023/05/20 00:40:30;;;;;;;40.92;19.60;;;;;;;26.51;56.69;97977.66;4983882;28;20423;-61
2023/05/20 00:42:59;;;;;;;40.10;20.63;;;;;;;26.52;57.24;97981.19;4979550;28;20067;-60
2023/05/20 00:45:30;;;;;;;48.47;23.08;;;;;;;26.50;57.18;97970.66;4980302;28;20057;-61
2023/05/20 00:48:02;;;;;;;53.80;23.55;;;;;;;26.54;56.94;97982.50;4978401;28;20043;-61
2023/05/20 00:50:32;;;;;;;57.08;27.48;;;;;;;26.62;56.44;97981.72;4984894;28;20425;-62
2023/05/20 00:53:02;;;;;;;66.15;29.02;;;;;;;26.65;56.33;97983.00;4985067;28;20050;-60
2023/05/20 00:55:32;;;;;;;64.65;29.23;;;;;;;26.67;56.43;97981.59;4984807;28;20050;-61
2023/05/20 00:58:03;;;;;;;78.47;33.72;;;;;;;26.73;56.41;97974.88;4985878;28;20050;-63
2023/05/20 01:00:33;;;;;;;67.80;32.83;;;;;;;26.85;56.42;97981.63;4968963;28;20050;-64
2023/05/20 01:03:02;;;;;;;62.28;35.13;;;;;;;26.86;56.78;97972.41;4969261;28;20042;-61
2023/05/20 01:05:32;;;;;;;72.47;37.78;;;;;;;26.87;56.77;97976.69;4989094;28;20072;-62
2023/05/20 01:08:02;;;;;;;79.50;39.83;;;;;;;26.97;56.75;97969.06;4989319;28;20104;-63
2023/05/20 01:10:33;;;;;;;84.05;39.03;;;;;;;27.09;56.39;97976.59;4971850;28;20069;-61
2023/05/20 01:13:07;;;;;;;81.90;42.10;;;;;;;27.16;56.33;97980.47;4987811;28;20105;-63
2023/05/20 01:15:41;;;;;;;87.00;41.70;;;;;;;27.26;56.45;97976.63;4986892;28;20054;-61
2023/05/20 01:18:17;;;;;;;76.32;38.92;;;;;;;27.33;55.78;97976.16;4987565;28;20046;-60
2023/05/20 01:20:48;;;;;;;72.20;36.55;;;;;;;27.34;54.85;97970.41;5003952;28;20092;-61
2023/05/20 01:23:18;;;;;;;80.95;43.67;;;;;;;27.43;50.57;97982.09;5007846;28;20049;-63
2023/05/20 01:25:47;;;;;;;84.00;41.10;;;;;;;27.53;52.46;97978.25;4988534;28;20070;-60
2023/05/20 01:28:17;;;;;;;92.72;47.75;;;;;;;27.55;50.83;97971.38;4987678;28;20058;-60
2023/05/20 01:30:51;;;;;;;92.45;46.72;;;;;;;27.68;51.76;97970.41;4989118;28;20450;-59
2023/05/20 01:33:25;;;;;;;94.03;49.03;;;;;;;27.74;50.83;97973.78;4987416;28;20078;-60
2023/05/20 01:35:56;;;;;;;87.07;48.40;;;;;;;27.91;51.91;97962.88;4974373;28;20101;-61
2023/05/20 01:38:26;;;;;;;93.13;47.58;;;;;;;27.99;51.08;97962.03;4979613;28;20078;-62
2023/05/20 01:40:57;;;;;;;93.22;47.85;;;;;;;28.10;51.14;97962.53;4991719;28;20562;-60
2023/05/20 01:43:27;;;;;;;94.95;49.92;;;;;;;28.27;49.74;97967.94;4989021;28;20057;-60
2023/05/20 01:45:56;;;;;;;91.43;51.50;;;;;;;28.49;52.79;97959.53;4989041;28;20081;-61
2023/05/20 01:48:26;;;;;;;91.78;52.65;;;;;;;28.77;49.83;97959.06;4982036;28;20042;-62
2023/05/20 01:50:56;;;;;;;100.68;53.97;;;;;;;29.16;49.57;97949.72;4981979;28;20065;-63
2023/05/20 01:53:26;;;;;;;128.15;60.85;;;;;;;29.68;46.04;97950.91;4987373;28;20053;-63
2023/05/20 01:55:55;;;;;;;121.60;64.50;;;;;;;30.19;44.64;97949.59;4987290;28;20065;-61
2023/05/20 01:58:26;;;;;;;130.55;72.82;;;;;;;30.52;42.42;97960.50;4981028;28;20556;-61
2023/05/20 02:00:55;;;;;;;142.23;80.32;;;;;;;30.83;40.19;97959.13;4984041;28;20047;-61
2023/05/20 02:03:25;;;;;;;139.52;78.85;;;;;;;31.27;38.95;97977.34;4985369;28;20423;-63
2023/05/20 02:05:55;;;;;;;137.98;76.47;;;;;;;31.58;39.28;97971.22;4971295;28;20108;-62
2023/05/20 02:08:24;;;;;;;145.80;77.25;;;;;;;31.56;38.90;97976.25;4986659;28;20692;-61
2023/05/20 02:10:54;;;;;;;130.02;71.47;;;;;;;31.85;38.14;97975.13;4970635;28;20042;-60
2023/05/20 02:13:24;;;;;;;118.22;69.07;;;;;;;32.21;36.78;97977.72;4987453;28;20816;-61
2023/05/20 02:15:53;;;;;;;116.03;65.35;;;;;;;32.58;36.04;97983.72;4970397;28;20727;-63
2023/05/20 02:18:25;;;;;;;108.30;63.50;;;;;;;33.04;34.71;97979.38;4982516;28;20143;-63
2023/05/20 02:20:55;;;;;;;117.88;64.25;;;;;;;33.17;35.81;97986.38;4990306;28;20133;-60
2023/05/20 02:23:24;;;;;;;109.88;58.75;;;;;;;33.48;35.10;97984.69;4986893;28;20065;-61
2023/05/20 02:25:55;;;;;;;88.90;50.13;;;;;;;33.38;31.44;97986.84;4986985;28;20043;-61
2023/05/20 02:28:24;;;;;;;86.78;49.35;;;;;;;33.87;34.31;97985.50;4997301;28;20050;-61
2023/05/20 02:30:55;;;;;;;91.47;49.75;;;;;;;33.77;36.25;97989.63;4999083;28;20049;-61
2023/05/20 02:33:27;;;;;;;85.13;49.10;;;;;;;34.08;34.33;97996.94;4980395;28;20055;-62
2023/05/20 02:35:57;;;;;;;79.25;45.88;;;;;;;34.04;32.85;97990.53;4986270;28;20417;-64
2023/05/20 02:38:26;;;;;;;75.20;42.38;;;;;;;34.28;33.18;97996.56;4980530;28;20045;-62
2023/05/20 02:40:57;;;;;;;76.13;40.75;;;;;;;34.75;31.40;98002.84;4986998;28;20047;-61
2023/05/20 02:43:27;;;;;;;78.47;42.30;;;;;;;34.88;30.02;98001.50;4986575;28;20061;-61
2023/05/20 02:45:57;;;;;;;74.10;43.45;;;;;;;35.15;29.61;98003.94;4970634;28;20564;-64
2023/05/20 02:48:26;;;;;;;75.55;44.70;;;;;;;35.10;30.66;98006.16;4986649;28;20144;-61
2023/05/20 02:50:56;;;;;;;87.88;46.50;;;;;;;35.08;29.12;98003.81;4971015;28;20050;-63
2023/05/20 02:53:25;;;;;;;84.47;45.45;;;;;;;35.40;29.75;98001.53;4986182;28;20046;-62
2023/05/20 02:55:54;;;;;;;76.63;45.70;;;;;;;35.65;30.08;97995.59;4986196;28;20050;-61
2023/05/20 02:58:25;;;;;;;84.78;45.42;;;;;;;35.63;30.15;98006.94;4979497;28;20046;-63
2023/05/20 03:00:56;;;;;;;84.00;46.40;;;;;;;35.52;33.16;97997.75;4986845;28;20090;-60
2023/05/20 03:03:28;;;;;;;97.60;49.45;;;;;;;35.49;35.73;97999.31;4970669;28;20055;-62
2023/05/20 03:05:58;;;;;;;95.32;49.45;;;;;;;35.50;43.20;97997.31;4986209;28;20140;-64
2023/05/20 03:08:28;;;;;;;76.82;42.95;;;;;;;35.15;32.05;97997.59;4987514;28;20105;-61
2023/05/20 03:10:57;;;;;;;86.57;44.28;;;;;;;34.95;39.19;97998.88;4986807;28;20042;-61
2023/05/20 03:13:27;;;;;;;72.38;42.00;;;;;;;34.84;34.60;97989.63;4983266;28;20614;-65
2023/05/20 03:16:00;;;;;;;68.75;39.85;;;;;;;35.21;37.54;97996.16;4986430;28;20038;-62
2023/05/20 03:18:30;;;;;;;71.60;40.53;;;;;;;34.89;35.89;97997.59;4980165;28;20059;-62
2023/05/20 03:20:59;;;;;;;71.20;38.22;;;;;;;35.03;33.30;97997.81;4977733;28;20069;-60
2023/05/20 03:23:29;;;;;;;66.20;38.22;;;;;;;35.36;36.65;97995.16;4982512;28;20521;-61
2023/05/20 03:25:59;;;;;;;61.22;36.15;;;;;;;35.19;33.19;97995.72;4970395;28;20103;-62
2023/05/20 03:28:28;;;;;;;63.00;35.10;;;;;;;34.96;37.93;98003.22;4969571;28;20053;-63
2023/05/20 03:30:58;;;;;;;67.47;32.90;;;;;;;35.28;38.14;97993.47;4984638;28;20100;-64
2023/05/20 03:33:30;;;;;;;59.33;30.88;;;;;;;35.28;33.04;97998.19;4969474;28;20046;-62
2023/05/20 03:36:00;;;;;;;64.43;30.35;;;;;;;35.29;36.43;97999.78;4986268;28;20367;-62
2023/05/20 03:38:30;;;;;;;50.83;28.23;;;;;;;35.57;33.50;98005.69;4985017;28;20379;-62
2023/05/20 03:41:00;;;;;;;50.75;26.65;;;;;;;35.72;30.46;98001.16;4984000;28;20057;-63
2023/05/20 03:43:29;;;;;;;44.13;24.92;;;;;;;35.77;36.22;98000.84;4982132;28;20058;-62
2023/05/20 03:45:59;;;;;;;46.58;26.50;;;;;;;35.86;37.93;98001.34;4977919;28;20053;-63
2023/05/20 03:48:28;;;;;;;58.53;24.77;;;;;;;35.88;29.85;97999.03;4983092;28;20046;-59
2023/05/20 03:51:01;;;;;;;52.75;26.30;;;;;;;36.21;34.00;98006.47;4986044;28;20057;-62
2023/05/20 03:53:31;;;;;;;52.95;27.42;;;;;;;36.24;31.06;98003.78;4985287;28;20089;-61
2023/05/20 03:56:00;;;;;;;59.53;27.60;;;;;;;36.67;34.60;98012.47;4969570;28;20425;-61
2023/05/20 03:58:30;;;;;;;57.03;28.55;;;;;;;36.59;32.95;98005.28;4986266;28;20137;-62
2023/05/20 04:01:01;;;;;;;60.85;30.00;;;;;;;36.95;31.54;98007.19;4986151;28;20056;-62
2023/05/20 04:03:31;;;;;;;58.85;29.70;;;;;;;36.66;32.54;98003.41;4985459;28;20062;-64
2023/05/20 04:06:01;;;;;;;57.03;31.92;;;;;;;36.64;37.54;98002.22;4985587;28;20050;-63
2023/05/20 04:08:31;;;;;;;56.85;29.65;;;;;;;36.76;36.81;98004.69;4985438;28;20141;-65
2023/05/20 04:11:02;;;;;;;57.38;31.90;;;;;;;36.80;37.11;97998.00;4985252;28;20416;-64
2023/05/20 04:13:31;;;;;;;53.10;30.52;;;;;;;36.30;30.76;97999.50;4986031;28;20144;-62
2023/05/20 04:16:01;;;;;;;51.22;29.83;;;;;;;36.41;31.12;98005.94;4978502;28;20058;-63
2023/05/20 04:18:31;;;;;;;57.30;25.98;;;;;;;36.92;34.98;98000.47;4968524;28;20062;-62
2023/05/20 04:21:00;;;;;;;45.55;19.80;;;;;;;37.23;32.41;98003.84;4968809;28;20152;-63
2023/05/20 04:23:30;;;;;;;44.58;16.77;;;;;;;37.46;30.14;98000.81;4978556;28;20043;-65
2023/05/20 04:26:01;;;;;;;41.17;15.27;;;;;;;37.65;29.57;98001.38;4984089;28;20078;-65
2023/05/20 04:28:32;;;;;;;37.42;14.35;;;;;;;37.71;29.23;98005.31;4957627;28;20456;-66
2023/05/20 04:31:03;;;;;;;26.63;11.57;;;;;;;37.92;30.13;98007.41;4975208;28;20636;-68
2023/05/20 04:33:38;;;;;;;26.48;12.15;;;;;;;38.08;30.02;98004.28;4983248;28;20705;-66
2023/05/20 04:36:10;;;;;;;;;;;;;;;37.99;28.17;98004.66;4988512;28;20057;-67
2023/05/20 04:38:41;;;;;;;31.77;12.45;;;;;;;38.15;30.69;98002.34;4981761;28;19921;-68
2023/05/20 04:41:10;;;;;;;21.40;11.10;;;;;;;38.16;31.60;97998.38;4984829;28;20038;-66
2023/05/20 04:43:40;;;;;;;28.50;12.40;;;;;;;38.29;32.89;97998.00;4987395;28;20533;-67
2023/05/20 04:46:09;;;;;;;35.78;10.85;;;;;;;38.36;27.09;98000.81;4984642;28;20058;-69
2023/05/20 04:48:38;;;;;;;27.40;10.05;;;;;;;38.48;27.74;97998.47;4979562;28;20526;-68
2023/05/20 04:51:08;;;;;;;28.27;10.00;;;;;;;38.80;32.36;98004.03;4976916;28;20043;-66
2023/05/20 04:53:39;;;;;;;31.15;10.48;;;;;;;38.57;30.25;98011.94;4980553;28;20132;-60
2023/05/20 04:56:12;;;;;;;34.53;10.65;;;;;;;38.54;30.61;98007.97;4988017;28;20058;-66
2023/05/20 04:58:42;;;;;;;28.42;9.98;;;;;;;38.35;26.81;98004.75;4982566;28;20842;-64
2023/05/20 05:01:12;;;;;;;24.05;9.05;;;;;;;38.69;26.44;98002.44;4988082;28;20137;-61
2023/05/20 05:03:42;;;;;;;23.10;9.60;;;;;;;38.65;30.07;98010.75;4976192;28;20047;-63
2023/05/20 05:06:11;;;;;;;27.20;10.18;;;;;;;38.85;31.65;98011.94;4987838;28;20042;-61
2023/05/20 05:08:41;;;;;;;33.10;9.07;;;;;;;38.86;27.98;98012.75;4986591;28;20552;-63
2023/05/20 05:11:11;;;;;;;27.08;10.30;;;;;;;39.12;32.09;98014.31;4978126;28;20471;-64
2023/05/20 05:13:41;;;;;;;29.08;9.70;;;;;;;39.12;27.28;98015.13;4981877;28;20046;-61
2023/05/20 05:16:11;;;;;;;30.10;10.15;;;;;;;39.25;25.94;98018.25;4987277;28;20053;-61
2023/05/20 05:18:42;;;;;;;30.70;10.02;;;;;;;39.24;25.98;98009.16;4978231;28;20556;-64
2023/05/20 05:21:11;;;;;;;25.63;10.27;;;;;;;39.26;26.42;98015.06;5002521;28;20099;-64
2023/05/20 05:23:42;;;;;;;33.33;10.95;;;;;;;39.43;28.87;98019.84;4987626;28;20830;-64
2023/05/20 05:26:12;;;;;;;33.03;10.52;;;;;;;39.61;28.32;98010.69;4978126;28;20721;-65
2023/05/20 05:28:44;;;;;;;40.00;12.32;;;;;;;39.32;27.94;97999.66;4979746;28;20054;-66
2023/05/20 05:31:13;;;;;;;;;;;;;;;39.59;29.58;98004.72;4988108;28;20056;-64
2023/05/20 05:33:42;;;;;;;42.03;14.73;;;;;;;39.46;26.50;97993.28;4971827;28;19926;-66
2023/05/20 05:36:12;;;;;;;39.20;14.05;;;;;;;39.51;27.17;97993.66;4973029;28;20078;-66
2023/05/20 05:38:41;;;;;;;33.25;13.80;;;;;;;39.58;28.38;97994.81;4988803;28;20046;-63
2023/05/20 05:41:10;;;;;;;29.25;13.43;;;;;;;39.32;25.82;97991.34;4971100;28;20474;-64
2023/05/20 05:43:40;;;;;;;37.03;15.13;;;;;;;39.16;27.03;97993.75;4987545;28;20712;-66
2023/05/20 05:46:09;;;;;;;26.15;12.80;;;;;;;38.98;26.29;97987.44;4965909;28;20046;-64
2023/05/20 05:48:38;;;;;;;29.50;12.60;;;;;;;39.33;29.51;97992.94;4973619;28;20034;-67
2023/05/20 05:51:08;;;;;;;33.78;13.30;;;;;;;39.44;28.39;97981.78;4953765;28;20077;-68
2023/05/20 05:53:38;;;;;;;32.60;14.05;;;;;;;39.60;29.60;97982.16;4973139;28;20435;-67
2023/05/20 05:56:08;;;;;;;38.50;14.35;;;;;;;39.34;28.72;97983.44;4985202;28;20041;-65
2023/05/20 05:58:37;;;;;;;30.40;13.15;;;;;;;39.14;26.56;97979.47;4965982;28;20537;-67
2023/05/20 06:01:07;;;;;;;35.03;13.57;;;;;;;39.47;30.38;97978.25;4968007;28;20050;-67
2023/05/20 06:03:37;;;;;;;31.25;12.70;;;;;;;39.67;27.86;97989.63;5000939;28;20447;-67
2023/05/20 06:06:07;;;;;;;32.25;12.75;;;;;;;39.49;26.51;97981.38;4985650;28;20046;-67
2023/05/20 06:08:36;;;;;;;36.92;11.95;;;;;;;39.37;26.51;97981.81;4978229;28;20066;-67
2023/05/20 06:11:07;;;;;;;28.58;10.13;;;;;;;39.32;26.60;97973.91;4986849;28;20049;-67
2023/05/20 06:13:37;;;;;;;34.35;10.07;;;;;;;39.30;24.00;97982.63;4986616;28;20093;-66
2023/05/20 06:16:07;;;;;;;26.55;9.77;;;;;;;39.35;24.55;97978.66;4970944;28;20421;-67
2023/05/20 06:18:37;;;;;;;25.08;10.02;;;;;;;39.24;23.10;97969.56;4987626;28;20096;-70
2023/05/20 06:21:06;;;;;;;26.00;9.75;;;;;;;39.40;26.00;97978.25;4984669;28;20054;-68
2023/05/20 06:23:36;;;;;;;22.45;9.32;;;;;;;39.37;25.26;97981.81;4971483;28;20057;-67
2023/05/20 06:26:08;;;;;;;21.55;8.73;;;;;;;39.12;24.32;97976.34;4978341;28;20069;-68
2023/05/20 06:28:38;;;;;;;26.08;9.77;;;;;;;39.27;28.80;97977.84;4968735;28;20074;-67
2023/05/20 06:31:08;;;;;;;21.55;9.40;;;;;;;39.43;26.26;97969.16;4986588;28;20077;-69
2023/05/20 06:33:39;;;;;;;20.83;8.50;;;;;;;39.31;25.66;97966.78;4987359;28;20038;-68
2023/05/20 06:36:12;;;;;;;21.08;7.80;;;;;;;39.30;27.13;97971.53;4976802;28;20046;-70
2023/05/20 06:38:42;;;;;;;19.80;7.53;;;;;;;39.24;22.39;97972.34;4976679;28;20076;-70
2023/05/20 06:41:14;;;;;;;25.20;7.77;;;;;;;39.13;22.83;97968.78;4984319;28;20042;-69
2023/05/20 06:43:43;;;;;;;21.25;7.97;;;;;;;39.03;27.02;97959.34;4984360;28;20053;-67
2023/05/20 06:46:36;;;;;;;21.33;7.45;;;;;;;39.35;27.16;97960.06;4957820;28;20141;-68
2023/05/20 06:49:10;;;;;;;19.80;6.05;;;;;;;39.42;21.51;97957.28;4983989;28;20050;-67
2023/05/20 06:51:40;;;;;;;19.02;6.13;;;;;;;39.31;24.08;97959.28;4973029;28;20467;-66
2023/05/20 06:54:10;;;;;;;17.73;6.10;;;;;;;39.27;21.17;97958.47;4973380;28;20053;-65
2023/05/20 06:56:39;;;;;;;13.93;5.80;;;;;;;39.31;21.22;97962.03;4966800;28;20088;-67
2023/05/20 06:59:09;;;;;;;12.77;5.68;;;;;;;39.35;20.46;97960.06;4980293;28;20466;-68
2023/05/20 07:01:39;;;;;;;16.55;6.63;;;;;;;39.25;20.74;97966.41;4970153;28;20054;-66
2023/05/20 07:04:08;;;;;;;14.95;6.10;;;;;;;39.38;20.47;97961.25;4986804;28;20057;-64
2023/05/20 07:06:38;;;;;;;18.02;6.40;;;;;;;39.34;20.65;97964.03;4982672;28;20427;-64
2023/05/20 07:09:09;;;;;;;16.15;6.32;;;;;;;39.36;20.79;97950.56;4984060;28;20056;-62
2023/05/20 07:11:39;;;;;;;15.00;6.50;;;;;;;39.36;22.60;97955.31;4968621;28;20054;-66
2023/05/20 07:14:09;;;;;;;17.35;7.22;;;;;;;39.39;21.70;97943.44;4977305;28;20743;-63
2023/05/20 07:16:38;;;;;;;23.20;7.10;;;;;;;39.32;21.09;97948.97;4976838;28;20050;-66
2023/05/20 07:19:09;;;;;;;17.02;6.28;;;;;;;39.31;19.84;97950.97;4984478;28;20125;-66
2023/05/20 07:21:39;;;;;;;26.25;6.60;;;;;;;39.33;20.02;97943.03;4969627;28;20061;-63
2023/05/20 07:24:27;;;;;;;17.48;6.75;;;;;;;39.27;19.84;97943.81;4985961;28;20061;-64
2023/05/20 07:26:57;;;;;;;21.42;6.03;;;;;;;39.35;22.00;97940.66;4971023;28;20068;-67
2023/05/20 07:29:26;;;;;;;22.15;6.13;;;;;;;39.34;22.37;97946.63;4985724;28;20053;-64
2023/05/20 07:31:56;;;;;;;14.18;6.03;;;;;;;39.28;21.24;97934.31;4985649;28;20105;-64
2023/05/20 07:34:26;;;;;;;18.50;6.90;;;;;;;39.24;21.31;97930.78;4986356;28;20057;-65
2023/05/20 07:36:57;;;;;;;18.83;6.55;;;;;;;39.09;19.52;97933.56;4980251;28;20117;-62
2023/05/20 07:39:26;;;;;;;18.02;6.03;;;;;;;39.04;20.04;97935.97;4971127;28;20141;-66
2023/05/20 07:41:56;;;;;;;14.93;6.70;;;;;;;39.10;21.77;97923.28;4992203;28;20047;-61
2023/05/20 07:44:26;;;;;;;21.20;6.55;;;;;;;39.09;20.56;97924.47;4980435;28;20129;-64
2023/05/20 07:46:56;;;;;;;20.27;6.93;;;;;;;39.04;22.27;97924.88;4969746;28;20371;-64
2023/05/20 07:49:25;;;;;;;26.83;7.05;;;;;;;38.98;21.89;97913.44;4973338;28;20474;-65
2023/05/20 07:51:55;;;;;;;16.83;7.03;;;;;;;38.89;22.39;97918.59;4977122;28;20057;-65
2023/05/20 07:54:26;;;;;;;27.40;7.63;;;;;;;38.94;23.40;97915.44;4992244;28;20061;-66
2023/05/20 07:56:56;;;;;;;18.95;6.70;;;;;;;38.89;23.81;97907.53;4990145;28;20061;-65
2023/05/20 07:59:25;;;;;;;14.52;6.38;;;;;;;38.83;23.00;97909.06;4981984;28;20113;-62
2023/05/20 08:01:55;;;;;;;17.23;6.72;;;;;;;38.73;21.41;97898.78;4981772;28;20053;-63
2023/05/20 08:04:26;;;;;;;14.55;5.88;;;;;;;38.73;22.79;97900.81;4981559;28;20077;-63
2023/05/20 08:06:56;;;;;;;16.98;6.97;;;;;;;38.80;24.70;97892.47;4983082;28;20065;-64
2023/05/20 08:09:37;;;;;;;17.52;6.63;;;;;;;38.72;23.54;97893.69;4976151;28;20162;-65
2023/05/20 08:12:07;;;;;;;23.92;6.05;;;;;;;38.70;22.95;97883.00;4954115;28;20138;-65
2023/05/20 08:14:37;;;;;;;18.33;7.20;;;;;;;38.72;23.72;97879.84;4973678;28;20085;-65
2023/05/20 08:17:07;;;;;;;18.30;6.35;;;;;;;38.71;24.16;97881.81;4962713;28;20121;-65
2023/05/20 08:19:37;;;;;;;19.55;6.78;;;;;;;38.74;23.48;97880.22;4982133;28;20111;-66
2023/05/20 08:22:07;;;;;;;19.92;7.43;;;;;;;38.76;24.71;97881.41;4980654;28;20077;-64
2023/05/20 08:24:37;;;;;;;12.10;5.78;;;;;;;38.69;22.64;97875.88;4981009;28;20074;-65
2023/05/20 08:27:06;;;;;;;18.17;6.15;;;;;;;38.61;21.76;97868.78;4964621;28;20794;-65
2023/05/20 08:29:36;;;;;;;16.10;6.60;;;;;;;38.61;23.17;97882.59;4965208;28;20580;-66
2023/05/20 08:32:06;;;;;;;18.05;6.28;;;;;;;38.68;22.46;97873.53;4624133;28;9999671;-65
2023/05/20 08:34:35;;;;;;;16.85;5.00;;;;;;;38.65;21.83;97875.88;4977225;28;20129;-66
2023/05/20 08:37:06;;;;;;;14.13;5.07;;;;;;;38.67;21.26;97878.25;4973856;28;20211;-66
2023/05/20 08:39:35;;;;;;;14.68;5.68;;;;;;;38.75;22.05;97867.94;4986965;28;20543;-65
2023/05/20 08:42:06;;;;;;;20.70;5.40;;;;;;;38.77;21.62;97865.59;4965217;28;20050;-63
2023/05/20 08:44:37;;;;;;;13.80;5.10;;;;;;;38.77;22.56;97866.34;4971858;28;20050;-64
2023/05/20 08:47:08;;;;;;;26.98;4.85;;;;;;;38.71;22.84;97856.09;4993743;28;20049;-65
2023/05/20 08:49:38;;;;;;;18.15;5.40;;;;;;;38.69;21.08;97855.69;4969913;28;20108;-64
2023/05/20 08:52:12;;;;;;;20.40;4.72;;;;;;;38.64;22.61;97846.59;4997519;28;20065;-63
2023/05/20 08:54:48;;;;;;;31.05;5.22;;;;;;;38.72;19.83;97846.63;4982273;28;20050;-66
2023/05/20 08:57:19;;;;;;;16.60;4.53;;;;;;;38.74;19.40;97842.25;4975071;28;20190;-63
2023/05/20 08:59:48;;;;;;;9.20;4.22;;;;;;;38.73;21.00;97837.88;4986093;28;20445;-62
2023/05/20 09:02:17;;;;;;;12.65;4.60;;;;;;;38.69;21.13;97830.78;4627223;28;10000046;-66
2023/05/20 09:04:47;;;;;;;17.80;4.93;;;;;;;38.67;20.12;97822.09;4949622;28;20051;-64
2023/05/20 09:07:36;;;;;;;27.33;5.18;;;;;;;38.74;18.73;97827.59;4970762;28;20054;-65
2023/05/20 09:10:07;;;;;;;28.23;5.22;;;;;;;38.78;20.23;97828.38;4984227;28;20112;-64
2023/05/20 09:12:40;;;;;;;16.25;5.32;;;;;;;38.76;21.16;97826.03;4980429;28;20149;-65
2023/05/20 09:15:09;;;;;;;15.73;4.72;;;;;;;38.67;20.41;97822.88;4986414;28;20052;-65
2023/05/20 09:17:38;;;;;;;19.35;5.13;;;;;;;38.71;20.33;97818.13;4992565;28;20050;-65
2023/05/20 09:20:10;;;;;;;14.38;5.13;;;;;;;38.71;19.88;97812.59;4998128;28;20129;-65
2023/05/20 09:22:40;;;;;;;22.60;4.93;;;;;;;38.67;22.06;97817.34;4985989;28;20053;-65
2023/05/20 09:25:12;;;;;;;18.95;5.50;;;;;;;38.65;21.67;97814.97;4990832;28;20064;-64
2023/05/20 09:27:41;;;;;;;15.20;5.00;;;;;;;38.53;20.78;97815.41;4986876;28;20379;-65
2023/05/20 09:30:11;;;;;;;12.02;4.72;;;;;;;38.53;21.94;97806.31;4996826;28;20470;-66
2023/05/20 09:32:41;;;;;;;18.70;4.97;;;;;;;38.52;20.40;97810.25;4990625;28;20050;-66
2023/05/20 09:35:14;;;;;;;21.10;5.10;;;;;;;38.58;20.06;97809.47;4624043;28;9999814;-65
2023/05/20 09:37:47;;;;;;;12.15;5.00;;;;;;;38.61;19.75;97800.34;4985762;28;20529;-65
2023/05/20 09:40:20;;;;;;;14.80;4.50;;;;;;;38.56;20.34;97789.69;4985003;28;20047;-65
2023/05/20 09:43:06;;;;;;;;;;;;;;;38.50;19.26;97790.50;4997330;28;20050;-65
2023/05/20 09:45:37;;;;;;;15.25;6.13;;;;;;;38.53;20.00;97782.19;4988731;28;19936;-65
2023/05/20 09:48:09;;;;;;;16.90;6.75;;;;;;;38.64;21.04;97787.69;4996289;28;20054;-66
2023/05/20 09:50:39;;;;;;;;;;;;;;;38.54;20.16;97794.84;4985848;28;20050;-66
2023/05/20 09:53:10;;;;;;;12.07;4.10;;;;;;;38.51;20.74;97783.75;4985310;28;20004;-67
2023/05/20 09:55:39;;;;;;;13.95;4.60;;;;;;;38.47;20.52;97780.22;4984243;28;20046;-66
2023/05/20 09:58:12;;;;;;;17.90;5.80;;;;;;;38.45;20.30;97779.84;4985040;28;20157;-67
2023/05/20 10:00:44;;;;;;;14.63;4.88;;;;;;;38.42;20.27;97777.81;4986736;28;20093;-65
2023/05/20 10:03:13;;;;;;;16.70;4.28;;;;;;;38.41;21.56;97777.06;4985986;28;20054;-65
2023/05/20 10:05:55;;;;;;;15.85;5.07;;;;;;;38.27;20.84;97776.28;4635311;28;10000108;-67
2023/05/20 10:08:34;;;;;;;19.65;5.20;;;;;;;38.21;20.50;97773.91;4983882;28;20100;-64
2023/05/20 10:11:14;;;;;;;17.33;4.78;;;;;;;38.21;20.10;97771.16;4984188;28;20047;-66
2023/05/20 10:13:58;;;;;;;22.23;5.85;;;;;;;38.27;19.60;97770.75;4984020;28;20057;-65
2023/05/20 10:16:49;;;;;;;17.65;5.63;;;;;;;38.23;20.63;97765.22;4982770;28;20426;-63
2023/05/20 10:19:24;;;;;;;12.23;4.88;;;;;;;38.28;19.37;97767.59;4980576;28;20046;-64
2023/05/20 10:22:06;;;;;;;16.23;4.55;;;;;;;38.33;18.47;97777.47;4981188;28;20712;-64
2023/05/20 10:24:43;;;;;;;18.63;4.95;;;;;;;38.34;19.06;97759.66;4965400;28;20050;-65
2023/05/20 10:27:16;;;;;;;14.00;4.53;;;;;;;38.29;20.04;97762.84;4983206;28;20386;-65
2023/05/20 10:29:50;;;;;;;17.83;4.65;;;;;;;38.29;19.15;97760.84;4985008;28;20061;-63
2023/05/20 10:32:31;;;;;;;17.48;5.22;;;;;;;38.29;20.04;97762.84;4984275;28;20562;-65
2023/05/20 10:35:03;;;;;;;20.95;5.22;;;;;;;38.19;21.30;97756.94;4981923;28;20074;-66
2023/05/20 10:37:41;;;;;;;17.52;4.93;;;;;;;38.15;20.84;97761.66;4982830;28;20046;-65
2023/05/20 10:40:13;;;;;;;16.15;5.22;;;;;;;38.15;20.59;97763.66;4982309;28;20163;-65
2023/05/20 10:42:43;;;;;;;25.48;5.53;;;;;;;38.13;22.15;97766.81;4983035;28;20050;-65
2023/05/20 10:45:26;;;;;;;15.57;5.30;;;;;;;38.04;20.42;97747.06;4972137;28;20577;-65
2023/05/20 10:47:57;;;;;;;17.65;5.55;;;;;;;38.01;21.38;97756.19;4983287;28;20046;-64
2023/05/20 10:50:29;;;;;;;22.50;5.75;;;;;;;38.05;21.63;97750.63;4982035;28;20101;-62
2023/05/20 10:53:06;;;;;;;21.60;5.60;;;;;;;37.98;20.98;97754.19;4968964;28;20161;-62
2023/05/20 10:55:51;;;;;;;20.85;5.80;;;;;;;38.02;20.74;97756.97;4969126;28;20068;-63
2023/05/20 10:58:23;;;;;;;15.30;5.65;;;;;;;37.95;21.48;97756.94;4980319;28;20317;-63
2023/05/20 11:00:54;;;;;;;20.40;5.88;;;;;;;37.84;21.52;97756.16;4982780;28;20073;-63
2023/05/20 11:03:45;;;;;;;19.48;6.40;;;;;;;37.69;22.31;97761.66;5077175;27;20230;-62
2023/05/20 11:06:17;;;;;;;17.42;5.97;;;;;;;37.73;22.38;97747.84;5057811;28;20045;-62
2023/05/20 11:08:47;;;;;;;17.55;5.55;;;;;;;37.68;22.08;97749.03;5057372;28;20135;-62
2023/05/20 11:11:37;;;;;;;11.02;5.30;;;;;;;37.63;21.83;97751.38;4737049;28;10000900;-63
2023/05/20 11:14:07;;;;;;;17.90;5.53;;;;;;;37.65;20.85;97749.03;5078009;28;20255;-66
2023/05/20 11:16:36;;;;;;;26.52;5.45;;;;;;;37.80;19.85;97753.38;5075238;28;20047;-64
2023/05/20 11:19:08;;;;;;;16.98;5.68;;;;;;;37.78;20.50;97753.00;5077450;28;20143;-64
2023/05/20 11:21:43;;;;;;;20.98;5.60;;;;;;;37.70;20.76;97748.66;5073882;27;20040;-65
2023/05/20 11:24:13;;;;;;;14.15;5.38;;;;;;;37.63;20.90;97754.94;5073319;28;20049;-65
2023/05/20 11:26:43;;;;;;;18.70;5.40;;;;;;;37.67;20.33;97758.50;5064426;28;20051;-63
2023/05/20 11:29:12;;;;;;;13.60;4.68;;;;;;;37.57;21.07;97748.25;5077198;28;20490;-64
2023/05/20 11:31:43;;;;;;;14.85;4.97;;;;;;;37.54;20.75;97751.78;5077375;28;20051;-65
2023/05/20 11:34:12;;;;;;;13.00;4.95;;;;;;;37.45;20.85;97750.56;5078034;28;20055;-63
2023/05/20 11:36:42;;;;;;;20.60;5.13;;;;;;;37.39;21.31;97749.38;5076432;28;20062;-64
2023/05/20 11:39:13;;;;;;;24.88;4.90;;;;;;;37.31;21.81;97748.59;5078361;28;20044;-62